createdAt,value
2023-05-14T00:01:15.123Z,12.45
2023-05-14T00:05:16.654Z,10.85
2023-05-14T00:09:19.185Z,11.65
2023-05-14T00:13:20.739Z,11.73
2023-05-14T00:17:23.713Z,13.18
2023-05-14T00:21:25.284Z,11.90
2023-05-14T00:25:27.025Z,12.82
2023-05-14T00:29:28.560Z,11.55
2023-05-14T00:33:31.423Z,12.10
2023-05-14T00:37:32.944Z,10.30
2023-05-14T00:41:34.458Z,11.27
2023-05-14T00:45:35.976Z,11.95
2023-05-14T00:49:39.030Z,12.77
2023-05-14T00:53:41.249Z,11.60
2023-05-14T00:57:43.394Z,10.67
2023-05-14T01:01:44.983Z,11.13
2023-05-14T01:05:56.098Z,10.95
2023-05-14T01:10:01.488Z,11.90
2023-05-14T01:14:10.943Z,10.77
2023-05-14T01:18:16.977Z,11.35
2023-05-14T01:22:19.864Z,11.20
2023-05-14T01:26:21.531Z,11.55
2023-05-14T01:30:29.399Z,10.07
2023-05-14T01:34:31.618Z,10.15
2023-05-14T01:38:36.364Z,10.57
2023-05-14T01:42:38.428Z,11.18
2023-05-14T01:46:40.045Z,11.15
2023-05-14T01:50:41.788Z,11.75
2023-05-14T01:54:44.769Z,11.57
2023-05-14T01:58:46.345Z,10.82
2023-05-14T02:02:47.978Z,12.95
2023-05-14T02:06:49.553Z,13.07
2023-05-14T02:10:52.465Z,12.63
2023-05-14T02:14:54.004Z,12.07
2023-05-14T02:18:55.544Z,12.30
2023-05-14T02:22:57.081Z,13.10
2023-05-14T02:27:00.041Z,11.57
2023-05-14T02:31:01.626Z,11.52
2023-05-14T02:35:03.486Z,10.90
2023-05-14T02:39:05.014Z,12.48
2023-05-14T02:43:07.854Z,11.93
2023-05-14T02:47:09.551Z,12.05
2023-05-14T02:51:11.613Z,11.02
2023-05-14T02:55:13.206Z,12.43
2023-05-14T02:59:16.077Z,14.07
2023-05-14T03:07:20.784Z,12.60
2023-05-14T03:11:22.470Z,12.63
2023-05-14T03:15:25.465Z,12.55
2023-05-14T03:19:27.001Z,12.57
2023-05-14T03:23:28.689Z,13.13
2023-05-14T03:27:30.196Z,12.02
2023-05-14T03:31:33.201Z,12.38
2023-05-14T03:35:34.750Z,11.18
2023-05-14T03:39:36.362Z,11.80
2023-05-14T03:43:37.886Z,11.65
2023-05-14T03:47:40.765Z,11.73
2023-05-14T03:51:42.294Z,11.73
2023-05-14T03:55:43.813Z,11.77
2023-05-14T03:59:45.319Z,12.40
2023-05-14T04:03:48.331Z,12.43
2023-05-14T04:07:49.923Z,10.95
2023-05-14T04:11:51.494Z,11.15
2023-05-14T04:15:53.040Z,11.60
2023-05-14T04:19:55.901Z,11.90
2023-05-14T04:23:57.483Z,11.18
2023-05-14T04:27:58.984Z,11.73
2023-05-14T04:32:00.540Z,10.98
2023-05-14T04:36:03.947Z,12.20
2023-05-14T04:40:07.939Z,10.55
2023-05-14T04:44:09.497Z,10.65
2023-05-14T04:48:11.035Z,9.95
2023-05-14T04:52:13.931Z,11.25
2023-05-14T04:56:15.420Z,10.95
2023-05-14T05:00:17.406Z,12.05
2023-05-14T05:04:18.997Z,11.50
2023-05-14T05:08:21.874Z,11.30
2023-05-14T05:12:23.368Z,10.82
2023-05-14T05:16:25.175Z,9.65
2023-05-14T05:20:26.797Z,10.75
2023-05-14T05:24:29.668Z,9.63
2023-05-14T05:28:31.201Z,9.88
2023-05-14T05:32:32.766Z,8.35
2023-05-14T05:36:34.335Z,8.88
2023-05-14T05:40:37.210Z,8.43
2023-05-14T05:44:38.724Z,7.82
2023-05-14T05:48:40.259Z,8.15
2023-05-14T05:52:41.842Z,8.30
2023-05-14T05:56:44.765Z,7.43
2023-05-14T06:00:46.871Z,7.75
2023-05-14T06:04:48.438Z,7.78
2023-05-14T06:08:49.989Z,7.88
2023-05-14T06:12:52.865Z,8.13
2023-05-14T06:16:54.456Z,7.65
2023-05-14T06:20:56.024Z,7.95
2023-05-14T06:24:57.750Z,8.68
2023-05-14T06:29:00.615Z,9.13
2023-05-14T06:33:02.195Z,7.80
2023-05-14T06:37:03.960Z,8.35
2023-05-14T06:41:05.554Z,7.47
2023-05-14T06:45:09.190Z,7.35
2023-05-14T06:49:10.862Z,6.65
2023-05-14T06:53:12.719Z,9.20
2023-05-14T06:57:14.254Z,7.93
2023-05-14T07:01:17.231Z,6.60
2023-05-14T07:05:18.780Z,6.63
2023-05-14T07:09:20.280Z,6.88
2023-05-14T07:13:21.764Z,7.30
2023-05-14T07:17:24.788Z,6.93
2023-05-14T07:21:26.519Z,6.72
2023-05-14T07:25:28.047Z,7.05
2023-05-14T07:29:29.633Z,6.25
2023-05-14T07:33:32.662Z,6.53
2023-05-14T07:41:35.625Z,6.97
2023-05-14T07:45:37.645Z,5.85
2023-05-14T07:49:40.547Z,7.13
2023-05-14T07:53:42.069Z,5.40
2023-05-14T07:57:43.601Z,6.97
2023-05-14T08:01:45.163Z,5.40
2023-05-14T08:05:48.077Z,5.63
2023-05-14T08:09:49.603Z,5.38
2023-05-14T08:13:51.124Z,5.47
2023-05-14T08:17:52.740Z,4.78
2023-05-14T08:21:55.699Z,5.07
2023-05-14T08:25:57.250Z,5.22
2023-05-14T08:29:58.847Z,4.88
2023-05-14T08:34:00.366Z,4.25
2023-05-14T08:38:03.218Z,4.80
2023-05-14T08:46:10.950Z,4.32
2023-05-14T08:50:12.657Z,3.53
2023-05-14T08:54:17.358Z,3.92
2023-05-14T08:58:19.239Z,4.53
2023-05-14T09:02:23.323Z,4.40
2023-05-14T09:06:27.114Z,4.30
2023-05-14T09:10:29.996Z,3.65
2023-05-14T09:14:33.292Z,5.82
2023-05-14T09:18:36.397Z,4.90
2023-05-14T09:22:38.725Z,3.65
2023-05-14T09:26:41.642Z,7.22
2023-05-14T09:34:48.204Z,3.42
2023-05-14T09:38:49.731Z,7.68
2023-05-14T09:42:52.590Z,4.10
2023-05-14T09:46:54.568Z,4.55
2023-05-14T09:50:56.480Z,7.88
2023-05-14T09:54:58.399Z,4.28
2023-05-14T09:59:01.552Z,4.30
2023-05-14T10:03:05.712Z,5.18
2023-05-14T10:07:07.567Z,4.45
2023-05-14T10:11:13.935Z,8.98
2023-05-14T10:15:21.354Z,4.55
2023-05-14T10:19:24.802Z,4.28
2023-05-14T10:23:27.133Z,4.47
2023-05-14T10:27:29.055Z,4.50
2023-05-14T10:31:51.726Z,4.05
2023-05-14T10:36:01.279Z,4.32
2023-05-14T10:40:04.144Z,4.25
2023-05-14T10:44:08.518Z,3.90
2023-05-14T10:48:11.823Z,4.20
2023-05-14T10:52:13.461Z,4.10
2023-05-14T10:56:18.078Z,3.53
2023-05-14T11:00:19.809Z,3.47
2023-05-14T11:04:24.566Z,3.28
2023-05-14T11:08:28.013Z,4.10
2023-05-14T11:12:31.611Z,4.10
2023-05-14T11:16:33.867Z,3.83
2023-05-14T11:20:37.334Z,3.77
2023-05-14T11:24:38.871Z,4.10
2023-05-14T11:28:40.573Z,4.40
2023-05-14T11:32:44.352Z,4.03
2023-05-14T11:36:47.220Z,3.83
2023-05-14T11:40:51.981Z,3.45
2023-05-14T11:44:53.807Z,3.53
2023-05-14T11:48:55.318Z,4.35
2023-05-14T11:52:58.171Z,4.30
2023-05-14T11:57:01.427Z,4.50
2023-05-14T12:01:03.003Z,5.10
2023-05-14T12:05:06.128Z,4.13
2023-05-14T12:09:12.810Z,5.15
2023-05-14T12:13:15.670Z,4.95
2023-05-14T12:17:18.790Z,4.78
2023-05-14T12:21:20.395Z,5.25
2023-05-14T12:25:25.898Z,5.20
2023-05-14T12:29:27.400Z,6.15
2023-05-14T12:33:29.013Z,6.18
2023-05-14T12:37:31.319Z,6.00
2023-05-14T12:41:34.317Z,5.78
2023-05-14T12:45:35.901Z,5.38
2023-05-14T12:49:37.423Z,5.00
2023-05-14T12:53:39.019Z,5.32
2023-05-14T12:57:42.019Z,5.90
2023-05-14T13:05:44.965Z,5.72
2023-05-14T13:09:46.568Z,5.95
2023-05-14T13:13:49.434Z,5.22
2023-05-14T13:17:50.967Z,5.53
2023-05-14T13:21:52.506Z,6.50
2023-05-14T13:25:54.030Z,6.20
2023-05-14T13:29:57.039Z,6.55
2023-05-14T13:33:58.567Z,7.28
2023-05-14T13:38:00.236Z,7.93
2023-05-14T13:42:01.771Z,8.02
2023-05-14T13:46:05.823Z,8.30
2023-05-14T13:50:08.164Z,9.32
2023-05-14T13:54:09.756Z,12.23
2023-05-14T13:58:11.431Z,11.32
2023-05-14T14:02:14.912Z,9.50
2023-05-14T14:06:16.459Z,11.63
2023-05-14T14:10:17.982Z,10.98
2023-05-14T14:14:19.519Z,14.23
2023-05-14T14:18:22.381Z,13.73
2023-05-14T14:22:27.183Z,14.60
2023-05-14T14:26:30.569Z,12.55
2023-05-14T14:30:32.605Z,10.73
2023-05-14T14:34:35.480Z,10.70
2023-05-14T14:38:37.174Z,10.43
2023-05-14T14:42:38.665Z,7.97
2023-05-14T14:46:40.152Z,7.80
2023-05-14T14:50:43.021Z,7.22
2023-05-14T14:54:44.526Z,5.78
2023-05-14T14:58:46.048Z,5.97
2023-05-14T15:02:47.678Z,7.22
2023-05-14T15:06:50.604Z,6.55
2023-05-14T15:10:52.266Z,6.40
2023-05-14T15:14:53.793Z,5.72
2023-05-14T15:18:55.413Z,5.65
2023-05-14T15:22:58.539Z,5.00
2023-05-14T15:27:01.185Z,5.32
2023-05-14T15:31:03.083Z,5.10
2023-05-14T15:35:05.412Z,5.25
2023-05-14T15:39:08.276Z,5.10
2023-05-14T15:43:09.776Z,4.55
2023-05-14T15:47:11.276Z,5.50
2023-05-14T15:51:13.621Z,5.00
2023-05-14T15:55:16.595Z,4.77
2023-05-14T15:59:18.256Z,4.18
2023-05-14T16:03:19.860Z,4.35
2023-05-14T16:07:21.638Z,4.00
2023-05-14T16:11:24.488Z,3.63
2023-05-14T16:15:26.115Z,3.80
2023-05-14T16:19:27.859Z,3.80
2023-05-14T16:23:29.434Z,3.90
2023-05-14T16:27:32.372Z,4.10
2023-05-14T16:31:33.930Z,3.20
2023-05-14T16:35:35.508Z,3.80
2023-05-14T16:39:37.012Z,3.88
2023-05-14T16:43:39.856Z,3.60
2023-05-14T16:47:41.378Z,3.88
2023-05-14T16:51:42.917Z,3.58
2023-05-14T16:55:44.433Z,8.07
2023-05-14T16:59:47.359Z,3.55
2023-05-14T17:03:48.871Z,3.70
2023-05-14T17:07:50.377Z,3.78
2023-05-14T17:11:51.929Z,4.35
2023-05-14T17:15:55.096Z,4.07
2023-05-14T17:23:58.486Z,4.90
2023-05-14T17:28:00.011Z,4.63
2023-05-14T17:32:03.212Z,4.47
2023-05-14T17:36:05.075Z,4.88
2023-05-14T17:40:07.661Z,5.50
2023-05-14T17:44:10.735Z,5.95
2023-05-14T17:48:15.498Z,3.53
2023-05-14T17:52:17.170Z,5.00
2023-05-14T17:56:19.161Z,4.97
2023-05-14T18:00:20.863Z,4.90
2023-05-14T18:04:23.715Z,4.18
2023-05-14T18:08:25.263Z,4.95
2023-05-14T18:12:26.794Z,5.47
2023-05-14T18:16:28.421Z,5.75
2023-05-14T18:20:33.426Z,4.63
2023-05-14T18:24:36.319Z,5.15
2023-05-14T18:28:37.926Z,6.07
2023-05-14T18:32:39.487Z,6.45
2023-05-14T18:36:42.396Z,5.18
2023-05-14T18:40:43.920Z,5.30
2023-05-14T18:44:45.435Z,5.72
2023-05-14T18:48:46.996Z,5.18
2023-05-14T18:52:49.874Z,6.05
2023-05-14T18:56:51.415Z,6.00
2023-05-14T19:00:52.954Z,6.25
2023-05-14T19:04:54.454Z,6.63
2023-05-14T19:08:57.370Z,6.20
2023-05-14T19:12:59.129Z,6.53
2023-05-14T19:17:00.810Z,7.35
2023-05-14T19:21:02.342Z,7.10
2023-05-14T19:25:07.749Z,6.63
2023-05-14T19:29:09.922Z,7.40
2023-05-14T19:33:11.418Z,6.53
2023-05-14T19:37:12.983Z,6.35
2023-05-14T19:41:15.853Z,6.35
2023-05-14T19:45:17.416Z,6.68
2023-05-14T19:49:18.961Z,7.95
2023-05-14T19:53:20.501Z,7.50
2023-05-14T19:57:23.386Z,7.03
2023-05-14T20:01:25.072Z,6.78
2023-05-14T20:05:26.715Z,7.03
2023-05-14T20:09:28.268Z,7.25
2023-05-14T20:13:31.184Z,6.90
2023-05-14T20:17:32.741Z,6.28
2023-05-14T20:21:34.298Z,6.57
2023-05-14T20:25:35.856Z,6.10
2023-05-14T20:29:38.740Z,6.07
2023-05-14T20:33:40.275Z,6.22
2023-05-14T20:37:41.810Z,5.93
2023-05-14T20:41:43.350Z,5.95
2023-05-14T20:45:46.228Z,6.50
2023-05-14T20:49:48.079Z,5.85
2023-05-14T20:53:49.604Z,5.60
2023-05-14T20:57:51.138Z,8.05
2023-05-14T21:01:54.040Z,6.13
2023-05-14T21:05:55.622Z,5.85
2023-05-14T21:09:57.161Z,5.03
2023-05-14T21:13:58.683Z,5.72
2023-05-14T21:18:02.039Z,6.00
2023-05-14T21:22:03.618Z,5.63
2023-05-14T21:26:05.146Z,5.78
2023-05-14T21:30:07.928Z,5.00
2023-05-14T21:34:10.796Z,5.68
2023-05-14T21:38:12.406Z,5.00
2023-05-14T21:42:13.965Z,4.65
2023-05-14T21:46:15.631Z,4.13
2023-05-14T21:50:18.646Z,4.63
2023-05-14T21:54:20.463Z,4.50
2023-05-14T21:58:22.047Z,4.90
2023-05-14T22:02:23.736Z,4.55
2023-05-14T22:06:26.818Z,5.13
2023-05-14T22:10:30.424Z,4.90
2023-05-14T22:14:31.941Z,5.07
2023-05-14T22:18:33.484Z,4.30
2023-05-14T22:22:37.024Z,5.50
2023-05-14T22:26:38.545Z,5.25
2023-05-14T22:30:40.056Z,5.20
2023-05-14T22:34:41.627Z,4.80
2023-05-14T22:38:44.499Z,6.18
2023-05-14T22:42:46.012Z,5.35
2023-05-14T22:46:47.642Z,5.15
2023-05-14T22:50:49.170Z,5.10
2023-05-14T22:54:52.048Z,5.60
2023-05-14T22:58:53.574Z,5.85
2023-05-14T23:02:55.135Z,5.45
2023-05-14T23:06:57.643Z,5.78
2023-05-14T23:11:00.568Z,6.10
2023-05-14T23:15:02.127Z,5.90
2023-05-14T23:19:03.713Z,5.65
2023-05-14T23:23:05.531Z,6.70
2023-05-14T23:27:08.607Z,5.93
2023-05-14T23:35:11.818Z,5.88
2023-05-14T23:39:13.470Z,5.95
2023-05-14T23:43:16.336Z,6.07
2023-05-14T23:47:17.869Z,5.82
2023-05-14T23:51:19.408Z,5.72
2023-05-14T23:55:21.523Z,5.50
2023-05-14T23:59:24.401Z,5.28
